METAR Data
IDs: Format: Raw Decoded Include TAF

Data at: 0911 UTC 18 Jan 2019

PAGM 180904Z AUTO 26014KT 9SM -SN OVC015 M09/M12 A3002 RMK AO2 P0000 FZRANO
PAGM 180856Z AUTO 24011KT 8SM -SN OVC013 M10/M12 A3002 RMK AO2 SLP172 P0000 60000 T11001117 410561106 53017 FZRANO
PAGM 180756Z AUTO 25013KT 9SM -SN OVC013 M09/M12 A3000 RMK AO2 SLP166 P0000 T10941117 FZRANO
PAGM 180656Z AUTO 25011KT 9SM -SN BKN013 OVC030 M09/M12 A2998 RMK AO2 SNB0558E09B45 SLP160 P0000 T10941117 FZRANO
PAGM 180622Z AUTO 25009KT 10SM BKN011 OVC033 M10/M12 A2998 RMK AO2 SNB0558E09 P0000 FZRANO
PAGM 180556Z AUTO 25008KT 10SM FEW011 OVC035 M10/M12 A2997 RMK AO2 SLP155 60000 T11001117 11083 21106 51021 FZRANO
PAGM 180456Z AUTO 25010KT 10SM OVC039 M10/M12 A2995 RMK AO2 SNE08 SLP150 P0000 T11001117 FZRANO
PAGM 180356Z AUTO 25008KT 9SM -SN BKN045 OVC055 M10/M12 A2993 RMK AO2 SNB35 SLP144 P0000 T11001117 FZRANO
PAGM 180256Z AUTO 27011KT 10SM BKN070 M11/M12 A2991 RMK AO2 SLP134 T11061117 53023 FZRANO
PAGM 180156Z AUTO 26011KT 10SM OVC070 M10/M12 A2988 RMK AO2 SLP125 T11001117 FZRANO
PAGM 180056Z AUTO 28009KT 10SM CLR M10/M12 A2985 RMK AO2 SLP116 T11001117 FZRANO
PAGM 172356Z AUTO 27011KT 10SM CLR M08/M11 A2984 RMK AO2 SLP111 60000 T10831106 11083 21100 53019 FZRANO
PAGM 172256Z AUTO 25011KT 10SM CLR M09/M11 A2982 RMK AO2 SLP105 T10891106 FZRANO
PAGM 172156Z AUTO 24007KT 10SM CLR M09/M11 A2980 RMK AO2 SLP097 T10941106 FZRANO
PAGM 172056Z AUTO 28008KT 10SM CLR M10/M11 A2978 RMK AO2 SLP092 60000 T11001111 51016 FZRANO
PAGM 172029Z AUTO 27011KT 10SM FEW010 M09/M11 A2978 RMK AO2 FZRANO
PAGM 171909Z AUTO 28013KT 10SM OVC010 M09/M10 A2976 RMK AO2 SNE1858 CIG 008V012 P0000 FZRANO
PAGM 171856Z AUTO 28014KT 9SM -SN OVC008 M09/M09 A2975 RMK AO2 SNB1757 CIG 007V011 SLP080 P0000 T10891094 FZRANO
PAGM 171825Z AUTO 28013KT 9SM -SN OVC008 M08/M09 A2974 RMK AO2 SNB1757 CIG 007V012 P0000 FZRANO
PAGM 171756Z AUTO 30008KT 10SM OVC010 M08/M09 A2973 RMK AO2 SNE43 SLP075 P0000 60000 T10831094 11061 21083 53013 FZRANO
PAGM 171703Z AUTO 34009KT 9SM -SN BKN010 OVC015 M08/M09 A2972 RMK AO2 CIG 007V013 P0000 FZRANO
PAGM 171656Z AUTO 34009KT 7SM -SN BKN008 OVC013 M08/M09 A2972 RMK AO2 CIG 007V011 SLP071 P0000 T10831094 FZRANO
PAGM 171556Z AUTO 33010KT 9SM -SN OVC008 M08/M09 A2971 RMK AO2 SLP066 P0000 T10831089 FZRANO
PAGM 171456Z AUTO 34011KT 6SM -SN BR OVC006 M08/M09 A2970 RMK AO2 SLP063 P0000 60000 T10781089 52010 FZRANO
PAGM 171356Z AUTO 35011KT 6SM -SN BR OVC006 M07/M08 A2969 RMK AO2 UPE38SNB38 SLP059 P0000 T10721083 FZRANO
PAGM 171317Z AUTO 34011KT 3SM UP BR OVC006 M07/M08 A2968 RMK AO2 CIG 004V009 P0000 FZRANO
PAGM 171256Z AUTO 32010KT 2SM UP BR OVC004 M06/M07 A2968 RMK AO2 UPB53SNB32E53 SLP057 P0000 T10611072 FZRANO
PAGM 171246Z AUTO 33009KT 2SM -SN BR OVC004 M06/M07 A2968 RMK AO2 SNB32 P0000 FZRANO
PAGM 171156Z AUTO 32010KT 10SM OVC004 M06/M07 A2967 RMK AO2 UPB37E47SNB03E37 SLP053 P0000 60000 T10611067 11056 21067 53000 FZRANO
PAGM 171130Z AUTO 34010KT 2 1/2SM -SN BR OVC004 M06/M07 A2967 RMK AO2 VIS 2V4 SNB03 P0000 FZRANO
PAGM 171056Z AUTO 28018KT 6SM BR OVC008 M06/M07 A2966 RMK AO2 SNE48 SLP051 P0000 T10611072 FZRANO
PAGM 170956Z AUTO 28018KT 8SM -SN OVC008 M06/M07 A2966 RMK AO2 SLP051 P0000 T10611072 FZRANO
PAGM 170856Z AUTO 28015KT 9SM -SN OVC008 M07/M08 A2967 RMK AO2 SLP053 P0000 60000 T10671078 410111067 56003 FZRANO
PAGM 170756Z AUTO 28018KT 9SM -SN BKN008 OVC019 M07/M08 A2967 RMK AO2 SLP054 P0000 T10671078 FZRANO
PAGM 170707Z AUTO 28017KT 3SM -SN BR BKN008 BKN028 OVC039 M07/M07 A2966 RMK AO2 P0000 FZRANO
PAGM 170656Z AUTO 28016KT 2 1/2SM -SN BR BKN008 BKN021 OVC028 M07/M07 A2966 RMK AO2 SLP052 P0000 T10671072 FZRANO
PAGM 170629Z AUTO 28015KT 2 1/2SM -SN BR BKN008 OVC017 M07/M07 A2967 RMK AO2 CIG 007V012 P0000 FZRANO
PAGM 170556Z AUTO 27015KT 2 1/2SM -SN BR OVC008 M06/M07 A2968 RMK AO2 CIG 007V011 SLP056 P0000 60000 T10611072 11044 21061 57001 FZRANO
PAGM 170554Z AUTO 27012KT 2 1/2SM -SN BR OVC008 M06/M07 A2968 RMK AO2 CIG 007V011 P0000 FZRANO
PAGM 170523Z AUTO 29013KT 3SM -SN BR OVC008 M06/M07 A2968 RMK AO2 CIG 006V012 P0000 FZRANO
PAGM 170505Z AUTO 28014KT 2SM -SN BR OVC008 M06/M07 A2968 RMK AO2 CIG 006V012 P0000 FZRANO
PAGM 170456Z AUTO 28014KT 1 3/4SM -SN BR OVC006 M06/M07 A2968 RMK AO2 CIG 006V011 SLP056 P0000 T10611067 FZRANO
PAGM 170418Z AUTO 28013KT 1 3/4SM -SN BR OVC006 M06/M07 A2968 RMK AO2 CIG 004V009 P0000 FZRANO
PAGM 170356Z AUTO 28016KT 1 1/2SM -SN BR OVC004 M06/M07 A2968 RMK AO2 UPE37SNB37 SLP057 P0000 T10561067 FZRANO
PAGM 170341Z AUTO 29015KT 2SM -SN BR OVC004 M06/M07 A2968 RMK AO2 UPE37SNB37 P0000 FZRANO
PAGM 170316Z AUTO 29015KT 4SM UP BR OVC004 M06/M07 A2968 RMK AO2 P0000 FZRANO
PAGM 170256Z AUTO 29017KT 1 1/2SM UP BR OVC004 M06/M07 A2968 RMK AO2 UPB28SNE28 SLP058 P0000 60000 T10561067 53001 FZRANO
PAGM 170208Z AUTO 29015KT 2SM -SN BR OVC004 M06/M06 A2968 RMK AO2 P0000 FZRANO
PAGM 170156Z AUTO 30016KT 5SM -SN BR OVC004 M06/M07 A2968 RMK AO2 SNE18B46 SLP058 P0000 T10561067 FZRANO
PAGM 170118Z AUTO 29017KT 7SM OVC004 M06/M06 A2969 RMK AO2 SNE18 P0000 FZRANO
PAGM 170056Z AUTO 28016KT 9SM -SN OVC006 M05/M06 A2968 RMK AO2 SLP058 P0000 T10501056 FZRANO
PAGM 170042Z AUTO 28016KT 3SM -SN BR OVC006 M05/M06 A2968 RMK AO2 P0000 FZRANO
PAGM 162356Z AUTO 29016KT 1SM -SN BR OVC004 M04/M05 A2968 RMK AO2 SLP058 P0000 60000 T10441050 11022 21044 58001 FZRANO
PAGM 162323Z AUTO 27014KT 1 3/4SM -SN BR OVC004 M03/M04 A2968 RMK AO2 VIS 1 1/4V3 P0000 FZRANO
PAGM 162256Z AUTO VRB04KT 10SM -SN OVC004 M03/M04 A2969 RMK AO2 SNE10B55 SLP060 P0000 T10331039 FZRANO
PAGM 162251Z AUTO 17005KT 10SM OVC004 M03/M04 A2969 RMK AO2 SNE10 CIG 003V008 P0000 FZRANO
PAGM 162232Z AUTO 16006KT 10SM BKN006 OVC017 M03/M04 A2969 RMK AO2 SNE10 CIG 003V008 P0000 FZRANO
PAGM 162207Z AUTO 16004KT 9SM -SN FEW008 OVC021 M03/M04 A2969 RMK AO2 P0000 FZRANO
PAGM 162156Z AUTO 16005KT 9SM -SN SCT012 OVC023 M03/M04 A2969 RMK AO2 SNB13 SLP059 P0000 T10331039 FZRANO
PAGM 162137Z AUTO 16007KT 3SM -SN BR BKN012 OVC025 M03/M04 A2968 RMK AO2 SNB13 P0000 FZRANO